createdAt,value
2022-10-22T00:01:04.380Z,15.60
2022-10-22T00:03:31.213Z,15.60
2022-10-22T00:05:57.904Z,15.60
2022-10-22T00:08:24.520Z,15.70
2022-10-22T00:10:51.178Z,15.50
2022-10-22T00:13:17.823Z,15.50
2022-10-22T00:15:44.491Z,15.50
2022-10-22T00:18:11.143Z,15.40
2022-10-22T00:20:37.752Z,15.40
2022-10-22T00:23:04.665Z,15.40
2022-10-22T00:25:33.824Z,15.40
2022-10-22T00:28:02.064Z,15.50
2022-10-22T00:30:28.803Z,15.40
2022-10-22T00:32:55.478Z,15.30
2022-10-22T00:35:22.091Z,15.30
2022-10-22T00:37:48.691Z,15.30
2022-10-22T00:40:15.416Z,15.30
2022-10-22T00:42:42.467Z,15.20
2022-10-22T00:45:12.492Z,15.00
2022-10-22T00:47:50.855Z,15.00
2022-10-22T00:50:34.847Z,15.00
2022-10-22T00:53:03.972Z,15.00
2022-10-22T00:55:32.767Z,15.10
2022-10-22T00:58:01.310Z,15.00
2022-10-22T01:00:28.120Z,15.00
2022-10-22T01:02:55.297Z,15.10
2022-10-22T01:05:22.625Z,15.00
2022-10-22T01:07:52.407Z,15.00
2022-10-22T01:10:27.950Z,15.00
2022-10-22T01:13:12.186Z,15.10
2022-10-22T01:16:00.935Z,15.00
2022-10-22T01:18:37.915Z,15.00
2022-10-22T01:21:18.775Z,14.90
2022-10-22T01:24:03.387Z,14.80
2022-10-22T01:26:48.859Z,14.80
2022-10-22T01:29:53.266Z,14.70
2022-10-22T01:32:23.282Z,14.70
2022-10-22T01:34:55.297Z,14.60
2022-10-22T01:37:24.501Z,14.60
2022-10-22T01:39:52.906Z,14.60
2022-10-22T01:42:19.660Z,14.60
2022-10-22T01:44:48.708Z,14.60
2022-10-22T01:47:24.083Z,14.50
2022-10-22T01:50:31.708Z,14.50
2022-10-22T01:53:05.354Z,14.50
2022-10-22T01:55:41.688Z,14.40
2022-10-22T01:58:34.356Z,14.40
2022-10-22T02:01:14.428Z,14.40
2022-10-22T02:03:49.387Z,14.40
2022-10-22T02:06:21.003Z,14.40
2022-10-22T02:08:49.740Z,14.40
2022-10-22T02:11:16.658Z,14.50
2022-10-22T02:13:51.076Z,14.50
2022-10-22T02:16:24.306Z,14.40
2022-10-22T02:18:55.089Z,14.40
2022-10-22T02:21:22.028Z,14.30
2022-10-22T02:23:49.189Z,14.40
2022-10-22T02:26:24.300Z,14.40
2022-10-22T02:29:08.351Z,14.50
2022-10-22T02:31:38.819Z,14.40
2022-10-22T02:34:10.119Z,14.40
2022-10-22T02:36:39.035Z,14.30
2022-10-22T02:39:07.752Z,14.20
2022-10-22T02:41:35.085Z,14.30
2022-10-22T02:44:02.965Z,14.30
2022-10-22T02:46:29.565Z,14.40
2022-10-22T02:48:56.158Z,14.40
2022-10-22T02:51:22.810Z,14.50
2022-10-22T02:53:49.435Z,14.60
2022-10-22T02:56:16.054Z,14.70
2022-10-22T02:58:42.658Z,14.70
2022-10-22T03:01:11.266Z,14.60
2022-10-22T03:03:40.364Z,14.50
2022-10-22T03:06:07.301Z,14.30
2022-10-22T03:08:34.934Z,14.20
2022-10-22T03:11:01.566Z,14.10
2022-10-22T03:13:29.078Z,13.90
2022-10-22T03:15:55.684Z,13.90
2022-10-22T03:18:22.247Z,13.90
2022-10-22T03:20:48.957Z,13.80
2022-10-22T03:23:18.989Z,13.80
2022-10-22T03:25:48.167Z,13.90
2022-10-22T03:28:17.129Z,14.00
2022-10-22T03:30:43.730Z,13.80
2022-10-22T03:33:10.312Z,14.00
2022-10-22T03:35:43.625Z,14.10
2022-10-22T03:38:10.671Z,14.10
2022-10-22T03:40:37.627Z,14.20
2022-10-22T03:43:04.340Z,14.10
2022-10-22T03:45:30.947Z,13.80
2022-10-22T03:47:57.891Z,13.90
2022-10-22T03:50:24.654Z,13.90
2022-10-22T03:52:51.265Z,14.00
2022-10-22T03:55:17.933Z,14.10
2022-10-22T03:57:44.548Z,14.10
2022-10-22T04:00:11.380Z,14.10
2022-10-22T04:02:38.002Z,14.20
2022-10-22T04:05:04.928Z,14.30
2022-10-22T04:07:31.629Z,14.40
2022-10-22T04:09:58.262Z,14.10
2022-10-22T04:12:24.888Z,14.10
2022-10-22T04:14:51.543Z,14.10
2022-10-22T04:17:18.162Z,14.10
2022-10-22T04:19:44.782Z,14.20
2022-10-22T04:22:11.368Z,14.30
2022-10-22T04:24:38.211Z,14.20
2022-10-22T04:27:04.898Z,14.30
2022-10-22T04:29:31.498Z,14.30
2022-10-22T04:31:58.100Z,14.40
2022-10-22T04:34:28.521Z,14.20
2022-10-22T04:36:55.217Z,14.30
2022-10-22T04:39:21.808Z,14.40
2022-10-22T04:41:48.464Z,14.40
2022-10-22T04:44:16.225Z,14.30
2022-10-22T04:46:44.118Z,14.40
2022-10-22T04:49:10.706Z,14.10
2022-10-22T04:51:37.356Z,14.00
2022-10-22T04:54:04.170Z,14.10
2022-10-22T04:56:32.106Z,14.10
2022-10-22T04:59:01.937Z,14.20
2022-10-22T05:01:31.052Z,14.20
2022-10-22T05:04:00.171Z,14.20
2022-10-22T05:06:27.870Z,14.30
2022-10-22T05:09:00.873Z,14.20
2022-10-22T05:11:30.072Z,14.30
2022-10-22T05:13:57.979Z,14.20
2022-10-22T05:16:25.537Z,14.30
2022-10-22T05:18:53.215Z,14.20
2022-10-22T05:21:21.405Z,14.00
2022-10-22T05:23:50.075Z,13.80
2022-10-22T05:26:19.648Z,13.70
2022-10-22T05:28:47.589Z,13.70
2022-10-22T05:31:15.394Z,13.70
2022-10-22T05:33:42.934Z,13.70
2022-10-22T05:36:13.536Z,13.80
2022-10-22T05:38:40.159Z,13.80
2022-10-22T05:41:16.020Z,13.80
2022-10-22T05:43:42.811Z,13.80
2022-10-22T05:46:12.249Z,13.80
2022-10-22T05:48:39.426Z,13.80
2022-10-22T05:51:11.988Z,13.80
2022-10-22T05:53:40.821Z,13.70
2022-10-22T05:56:10.765Z,13.70
2022-10-22T05:58:37.615Z,13.70
2022-10-22T06:01:06.881Z,13.60
2022-10-22T06:03:33.577Z,13.60
2022-10-22T06:06:02.957Z,13.60
2022-10-22T06:08:30.411Z,13.70
2022-10-22T06:10:57.398Z,13.70
2022-10-22T06:13:24.099Z,13.70
2022-10-22T06:15:53.401Z,13.80
2022-10-22T06:18:20.173Z,13.80
2022-10-22T06:20:47.619Z,13.90
2022-10-22T06:23:15.220Z,13.90
2022-10-22T06:25:42.531Z,13.90
2022-10-22T06:28:09.703Z,13.80
2022-10-22T06:30:41.711Z,13.90
2022-10-22T06:33:10.871Z,13.90
2022-10-22T06:35:37.463Z,13.90
2022-10-22T06:38:04.094Z,14.00
2022-10-22T06:40:30.748Z,14.00
2022-10-22T06:42:59.639Z,13.90
2022-10-22T06:45:26.308Z,14.00
2022-10-22T06:47:53.530Z,14.00
2022-10-22T06:50:20.180Z,14.10
2022-10-22T06:52:46.851Z,14.20
2022-10-22T06:55:13.525Z,14.20
2022-10-22T06:57:40.362Z,14.20
2022-10-22T07:00:08.320Z,14.20
2022-10-22T07:02:35.020Z,14.20
2022-10-22T07:05:01.635Z,14.30
2022-10-22T07:07:28.254Z,14.30
2022-10-22T07:09:54.860Z,14.40
2022-10-22T07:12:21.804Z,14.40
2022-10-22T07:14:49.389Z,14.30
2022-10-22T07:17:16.033Z,14.30
2022-10-22T07:19:42.691Z,14.30
2022-10-22T07:22:09.376Z,14.30
2022-10-22T07:24:38.909Z,14.50
2022-10-22T07:27:09.370Z,14.40
2022-10-22T07:29:38.341Z,14.20
2022-10-22T07:32:05.187Z,13.90
2022-10-22T07:34:31.871Z,14.00
2022-10-22T07:36:59.247Z,14.20
2022-10-22T07:39:26.008Z,14.30
2022-10-22T07:41:53.109Z,14.40
2022-10-22T07:44:19.728Z,14.40
2022-10-22T07:46:48.864Z,14.50
2022-10-22T07:49:15.839Z,14.60
2022-10-22T07:51:42.428Z,14.60
2022-10-22T07:54:09.059Z,14.70
2022-10-22T07:56:35.683Z,14.70
2022-10-22T08:01:33.923Z,14.80
2022-10-22T08:04:00.683Z,14.70
2022-10-22T08:06:27.300Z,14.80
2022-10-22T08:08:53.939Z,14.70
2022-10-22T08:11:20.568Z,14.70
2022-10-22T08:13:47.190Z,14.80
2022-10-22T08:16:14.980Z,14.70
2022-10-22T08:18:41.884Z,14.70
2022-10-22T08:21:08.557Z,14.80
2022-10-22T08:23:35.392Z,14.80
2022-10-22T08:26:03.004Z,14.80
2022-10-22T08:28:31.130Z,14.80
2022-10-22T08:30:57.818Z,15.00
2022-10-22T08:33:24.705Z,15.10
2022-10-22T08:35:52.549Z,15.10
2022-10-22T08:38:19.425Z,15.30
2022-10-22T08:40:51.500Z,15.30
2022-10-22T08:43:18.086Z,15.50
2022-10-22T08:46:08.638Z,15.60
2022-10-22T08:48:57.082Z,15.70
2022-10-22T08:51:27.432Z,16.10
2022-10-22T08:54:11.653Z,16.10
2022-10-22T08:56:41.030Z,16.30
2022-10-22T08:59:23.034Z,16.20
2022-10-22T09:01:52.954Z,16.00
2022-10-22T09:04:36.351Z,16.20
2022-10-22T09:07:03.040Z,16.40
2022-10-22T09:09:40.687Z,16.60
2022-10-22T09:12:08.594Z,16.70
2022-10-22T09:14:35.500Z,16.70
2022-10-22T09:17:29.284Z,16.60
2022-10-22T09:19:58.941Z,16.90
2022-10-22T09:22:37.903Z,16.90
2022-10-22T09:25:19.815Z,17.00
2022-10-22T09:27:47.227Z,17.10
2022-10-22T09:30:22.401Z,17.20
2022-10-22T09:33:00.431Z,17.30
2022-10-22T09:35:27.307Z,17.40
2022-10-22T09:37:56.730Z,17.50
2022-10-22T09:40:23.736Z,17.60
2022-10-22T09:42:50.446Z,17.60
2022-10-22T09:45:23.033Z,17.70
2022-10-22T09:48:01.529Z,17.70
2022-10-22T09:50:42.431Z,17.90
2022-10-22T09:53:22.020Z,18.10
2022-10-22T09:55:58.152Z,18.20
2022-10-22T09:58:26.003Z,18.30
2022-10-22T10:01:00.883Z,18.40
2022-10-22T10:03:31.550Z,18.30
2022-10-22T10:06:04.769Z,18.40
2022-10-22T10:08:33.101Z,18.40
2022-10-22T10:11:13.264Z,18.50
2022-10-22T10:13:57.997Z,18.60
2022-10-22T10:16:55.369Z,18.70
2022-10-22T10:19:35.020Z,18.70
2022-10-22T10:22:21.902Z,18.60
2022-10-22T10:25:26.226Z,18.70
2022-10-22T10:28:02.128Z,18.90
2022-10-22T10:30:30.584Z,18.90
2022-10-22T10:33:20.690Z,19.00
2022-10-22T10:36:02.979Z,18.90
2022-10-22T10:38:35.085Z,19.00
2022-10-22T10:41:32.149Z,19.20
2022-10-22T10:44:20.142Z,19.20
2022-10-22T10:46:54.120Z,19.20
2022-10-22T10:49:25.505Z,19.30
2022-10-22T10:52:04.785Z,19.30
2022-10-22T10:54:35.471Z,19.30
2022-10-22T10:57:11.872Z,19.40
2022-10-22T11:00:03.051Z,19.40
2022-10-22T11:02:50.178Z,19.30
2022-10-22T11:05:35.353Z,19.50
2022-10-22T11:08:10.950Z,19.60
2022-10-22T11:10:44.923Z,19.70
2022-10-22T11:13:24.579Z,19.90
2022-10-22T11:15:59.528Z,19.80
2022-10-22T11:18:37.283Z,19.80
2022-10-22T11:21:11.585Z,19.90
2022-10-22T11:23:46.421Z,19.90
2022-10-22T11:26:24.724Z,20.00
2022-10-22T11:28:53.374Z,20.10
2022-10-22T11:31:25.263Z,20.00
2022-10-22T11:34:32.846Z,20.10
2022-10-22T11:37:01.191Z,20.10
2022-10-22T11:39:38.102Z,20.10
2022-10-22T11:42:09.276Z,20.20
2022-10-22T11:45:05.256Z,20.20
2022-10-22T11:48:00.732Z,20.20
2022-10-22T11:50:43.457Z,20.40
2022-10-22T11:53:13.036Z,20.50
2022-10-22T11:55:56.125Z,20.50
2022-10-22T11:58:28.617Z,20.50
2022-10-22T12:00:56.613Z,20.60
2022-10-22T12:03:32.242Z,20.70
2022-10-22T12:06:15.378Z,20.70
2022-10-22T12:08:49.653Z,20.60
2022-10-22T12:11:37.209Z,20.60
2022-10-22T12:14:26.818Z,20.60
2022-10-22T12:16:57.526Z,20.70
2022-10-22T12:19:29.111Z,20.80
2022-10-22T12:22:21.952Z,20.70
2022-10-22T12:24:51.275Z,20.80
2022-10-22T12:27:22.489Z,20.90
2022-10-22T12:29:54.979Z,20.90
2022-10-22T12:32:21.807Z,20.90
2022-10-22T12:37:18.767Z,20.80
2022-10-22T12:39:46.246Z,21.00
2022-10-22T12:42:14.988Z,20.70
2022-10-22T12:44:42.990Z,20.70
2022-10-22T12:47:18.247Z,20.70
2022-10-22T12:49:48.324Z,20.80
2022-10-22T12:52:21.341Z,20.70
2022-10-22T12:54:52.377Z,20.90
2022-10-22T12:57:21.116Z,21.00
2022-10-22T12:59:51.169Z,21.00
2022-10-22T13:02:24.468Z,21.00
2022-10-22T13:05:21.312Z,20.80
2022-10-22T13:07:50.900Z,20.80
2022-10-22T13:10:25.007Z,20.70
2022-10-22T13:12:55.613Z,20.60
2022-10-22T13:15:28.646Z,20.60
2022-10-22T13:18:25.932Z,20.50
2022-10-22T13:20:52.502Z,20.80
2022-10-22T13:23:22.568Z,21.00
2022-10-22T13:25:59.791Z,21.00
2022-10-22T13:28:27.533Z,21.20
2022-10-22T13:30:56.911Z,21.20
2022-10-22T13:33:32.169Z,21.20
2022-10-22T13:35:58.928Z,21.10
2022-10-22T13:38:27.240Z,21.10
2022-10-22T13:40:54.756Z,21.10
2022-10-22T13:43:22.142Z,20.90
2022-10-22T13:46:00.246Z,20.70
2022-10-22T13:48:29.334Z,20.80
2022-10-22T13:50:56.213Z,20.90
2022-10-22T13:53:25.366Z,20.80
2022-10-22T13:55:52.059Z,20.90
2022-10-22T13:58:26.375Z,20.90
2022-10-22T14:00:57.069Z,20.80
2022-10-22T14:03:29.156Z,20.80
2022-10-22T14:05:56.204Z,20.90
2022-10-22T14:08:25.332Z,20.80
2022-10-22T14:10:52.206Z,20.80
2022-10-22T14:13:20.112Z,20.80
2022-10-22T14:15:50.006Z,20.70
2022-10-22T14:18:28.530Z,20.70
2022-10-22T14:21:00.673Z,20.90
2022-10-22T14:23:29.671Z,20.90
2022-10-22T14:25:56.919Z,20.80
2022-10-22T14:28:23.542Z,20.80
2022-10-22T14:30:51.226Z,20.80
2022-10-22T14:33:32.553Z,20.80
2022-10-22T14:36:02.106Z,20.90
2022-10-22T14:38:29.407Z,20.80
2022-10-22T14:40:57.347Z,20.70
2022-10-22T14:43:26.754Z,20.70
2022-10-22T14:45:53.923Z,20.60
2022-10-22T14:48:20.750Z,20.60
2022-10-22T14:50:47.980Z,20.60
2022-10-22T14:53:16.587Z,20.60
2022-10-22T14:55:47.379Z,20.50
2022-10-22T14:58:14.812Z,20.50
2022-10-22T15:00:42.540Z,20.60
2022-10-22T15:03:10.157Z,20.50
2022-10-22T15:05:43.371Z,20.40
2022-10-22T15:08:14.305Z,20.30
2022-10-22T15:10:41.900Z,20.40
2022-10-22T15:13:08.948Z,20.50
2022-10-22T15:15:39.538Z,20.50
2022-10-22T15:18:06.732Z,20.50
2022-10-22T15:20:33.347Z,20.60
2022-10-22T15:23:00.465Z,20.50
2022-10-22T15:25:27.234Z,20.60
2022-10-22T15:27:57.570Z,20.60
2022-10-22T15:30:28.690Z,20.50
2022-10-22T15:32:55.352Z,20.50
2022-10-22T15:35:21.973Z,20.50
2022-10-22T15:37:51.445Z,20.50
2022-10-22T15:40:18.097Z,20.40
2022-10-22T15:42:46.511Z,20.30
2022-10-22T15:45:13.163Z,20.30
2022-10-22T15:47:40.078Z,20.30
2022-10-22T15:50:07.604Z,20.20
2022-10-22T15:52:34.263Z,20.10
2022-10-22T15:55:04.190Z,20.00
2022-10-22T15:57:30.843Z,20.00
2022-10-22T15:59:57.554Z,19.90
2022-10-22T16:02:24.631Z,19.90
2022-10-22T16:04:51.294Z,19.80
2022-10-22T16:07:19.840Z,19.80
2022-10-22T16:09:49.194Z,19.70
2022-10-22T16:12:17.289Z,19.60
2022-10-22T16:14:44.106Z,19.50
2022-10-22T16:17:10.934Z,19.40
2022-10-22T16:19:37.620Z,19.30
2022-10-22T16:22:04.368Z,19.20
2022-10-22T16:24:31.260Z,19.20
2022-10-22T16:26:57.942Z,19.10
2022-10-22T16:29:24.532Z,19.00
2022-10-22T16:31:51.199Z,18.90
2022-10-22T16:34:17.874Z,18.90
2022-10-22T16:36:44.644Z,18.80
2022-10-22T16:39:11.442Z,18.70
2022-10-22T16:41:38.147Z,18.70
2022-10-22T16:44:07.712Z,18.60
2022-10-22T16:46:38.307Z,18.50
2022-10-22T16:49:06.071Z,18.40
2022-10-22T16:51:33.689Z,18.40
2022-10-22T16:54:00.335Z,18.30
2022-10-22T16:56:27.270Z,18.30
2022-10-22T16:58:56.655Z,18.10
2022-10-22T17:01:29.631Z,18.10
2022-10-22T17:03:58.933Z,17.90
2022-10-22T17:06:25.990Z,17.90
2022-10-22T17:08:52.913Z,17.80
2022-10-22T17:11:23.106Z,17.80
2022-10-22T17:13:52.574Z,17.70
2022-10-22T17:16:22.657Z,17.60
2022-10-22T17:18:49.428Z,17.60
2022-10-22T17:21:16.647Z,17.40
2022-10-22T17:23:43.906Z,17.50
2022-10-22T17:26:20.302Z,17.50
2022-10-22T17:28:47.807Z,17.40
2022-10-22T17:31:24.389Z,17.30
2022-10-22T17:33:53.806Z,17.20
2022-10-22T17:36:22.200Z,17.10
2022-10-22T17:38:54.266Z,17.00
2022-10-22T17:41:24.289Z,17.00
2022-10-22T17:43:51.017Z,17.10
2022-10-22T17:46:26.327Z,17.00
2022-10-22T17:48:57.939Z,16.90
2022-10-22T17:51:26.564Z,16.80
2022-10-22T17:53:53.418Z,16.80
2022-10-22T17:56:25.684Z,16.80
2022-10-22T17:58:53.022Z,16.80
2022-10-22T18:01:21.558Z,16.70
2022-10-22T18:03:48.884Z,16.70
2022-10-22T18:06:15.594Z,16.70
2022-10-22T18:08:42.512Z,16.60
2022-10-22T18:11:11.650Z,16.50
2022-10-22T18:13:38.615Z,16.50
2022-10-22T18:16:05.778Z,16.40
2022-10-22T18:18:34.467Z,16.40
2022-10-22T18:21:01.832Z,16.30
2022-10-22T18:23:28.549Z,16.20
2022-10-22T18:25:55.367Z,16.10
2022-10-22T18:28:22.024Z,16.20
2022-10-22T18:30:49.121Z,16.10
2022-10-22T18:33:18.912Z,16.10
2022-10-22T18:35:48.799Z,16.00
2022-10-22T18:38:15.438Z,16.00
2022-10-22T18:40:46.561Z,16.00
2022-10-22T18:43:13.340Z,16.10
2022-10-22T18:45:44.181Z,16.00
2022-10-22T18:48:13.128Z,16.00
2022-10-22T18:50:40.045Z,16.00
2022-10-22T18:53:06.870Z,16.00
2022-10-22T18:55:34.772Z,15.90
2022-10-22T18:58:01.497Z,16.00
2022-10-22T19:00:28.262Z,15.90
2022-10-22T19:02:55.069Z,15.90
2022-10-22T19:05:22.228Z,15.80
2022-10-22T19:07:51.822Z,15.80
2022-10-22T19:10:18.782Z,15.80
2022-10-22T19:12:45.490Z,15.70
2022-10-22T19:15:12.211Z,15.70
2022-10-22T19:17:38.969Z,15.70
2022-10-22T19:20:06.543Z,15.80
2022-10-22T19:22:33.406Z,15.70
2022-10-22T19:25:00.046Z,15.70
2022-10-22T19:27:26.820Z,15.70
2022-10-22T19:29:53.470Z,15.60
2022-10-22T19:32:20.258Z,15.50
2022-10-22T19:34:47.278Z,15.50
2022-10-22T19:37:14.225Z,15.60
2022-10-22T19:39:41.265Z,15.50
2022-10-22T19:42:08.054Z,15.40
2022-10-22T19:44:34.881Z,15.40
2022-10-22T19:47:01.581Z,15.40
2022-10-22T19:49:28.351Z,15.40
2022-10-22T19:51:54.980Z,15.40
2022-10-22T19:54:21.719Z,15.40
2022-10-22T19:56:49.503Z,15.30
2022-10-22T19:59:17.752Z,15.30
2022-10-22T20:01:44.428Z,15.30
2022-10-22T20:04:15.655Z,15.20
2022-10-22T20:06:43.359Z,15.20
2022-10-22T20:09:11.222Z,15.20
2022-10-22T20:11:38.927Z,15.20
2022-10-22T20:14:05.565Z,15.20
2022-10-22T20:16:32.375Z,15.20
2022-10-22T20:19:01.134Z,15.10
2022-10-22T20:21:27.938Z,15.10
2022-10-22T20:23:56.574Z,15.00
2022-10-22T20:26:25.683Z,15.00
2022-10-22T20:28:52.375Z,15.10
2022-10-22T20:31:21.060Z,15.00
2022-10-22T20:33:49.123Z,14.90
2022-10-22T20:36:21.535Z,14.90
2022-10-22T20:38:48.487Z,14.90
2022-10-22T20:41:18.609Z,14.90
2022-10-22T20:43:46.740Z,14.90
2022-10-22T20:46:26.502Z,14.90
2022-10-22T20:48:56.306Z,14.90
2022-10-22T20:51:22.934Z,14.90
2022-10-22T20:53:49.640Z,14.90
2022-10-22T20:56:17.844Z,14.90
2022-10-22T20:58:48.471Z,14.90
2022-10-22T21:01:23.939Z,14.90
2022-10-22T21:03:53.890Z,14.80
2022-10-22T21:06:22.956Z,14.60
2022-10-22T21:08:50.712Z,14.60
2022-10-22T21:11:18.000Z,14.60
2022-10-22T21:13:44.664Z,14.60
2022-10-22T21:16:13.576Z,14.60
2022-10-22T21:18:40.672Z,14.60
2022-10-22T21:21:08.814Z,14.60
2022-10-22T21:23:36.229Z,14.60
2022-10-22T21:26:03.611Z,14.60
2022-10-22T21:28:35.137Z,14.50
2022-10-22T21:31:03.643Z,14.50
2022-10-22T21:33:30.562Z,14.50
2022-10-22T21:35:58.273Z,14.40
2022-10-22T21:38:25.999Z,14.30
2022-10-22T21:40:52.806Z,14.40
2022-10-22T21:43:19.532Z,14.50
2022-10-22T21:45:46.230Z,14.40
2022-10-22T21:48:13.906Z,14.40
2022-10-22T21:50:42.097Z,14.30
2022-10-22T21:53:10.581Z,14.30
2022-10-22T21:55:38.649Z,14.30
2022-10-22T21:58:06.258Z,14.20
2022-10-22T22:00:33.038Z,14.20
2022-10-22T22:02:59.823Z,14.30
2022-10-22T22:05:26.751Z,14.20
2022-10-22T22:07:53.357Z,14.20
2022-10-22T22:10:19.965Z,14.10
2022-10-22T22:12:46.716Z,14.00
2022-10-22T22:15:13.394Z,13.90
2022-10-22T22:17:40.055Z,14.00
2022-10-22T22:20:09.111Z,13.90
2022-10-22T22:22:35.775Z,13.80
2022-10-22T22:25:02.393Z,13.90
2022-10-22T22:27:29.013Z,13.90
2022-10-22T22:29:55.650Z,13.90
2022-10-22T22:32:22.307Z,14.00
2022-10-22T22:34:48.926Z,13.90
2022-10-22T22:37:15.519Z,13.90
2022-10-22T22:39:42.205Z,14.00
2022-10-22T22:42:08.798Z,13.90
2022-10-22T22:44:35.401Z,13.90
2022-10-22T22:47:02.221Z,13.90
2022-10-22T22:49:28.815Z,13.90
2022-10-22T22:51:55.486Z,13.80
2022-10-22T22:54:22.077Z,13.90
2022-10-22T22:56:50.000Z,13.80
2022-10-22T22:59:16.619Z,13.80
2022-10-22T23:01:45.280Z,13.80
2022-10-22T23:04:16.260Z,13.80
2022-10-22T23:06:43.132Z,13.80
2022-10-22T23:09:12.129Z,13.70
2022-10-22T23:11:40.025Z,13.70
2022-10-22T23:14:08.310Z,13.70
2022-10-22T23:16:36.977Z,13.70
2022-10-22T23:19:05.376Z,13.70
2022-10-22T23:21:37.948Z,13.60
2022-10-22T23:24:08.136Z,13.60
2022-10-22T23:26:40.666Z,13.60
2022-10-22T23:29:26.075Z,13.60
2022-10-22T23:31:54.265Z,13.50
2022-10-22T23:34:23.604Z,13.50
2022-10-22T23:36:51.194Z,13.50
2022-10-22T23:39:20.973Z,13.50
2022-10-22T23:41:47.584Z,13.50
2022-10-22T23:44:14.378Z,13.40
2022-10-22T23:46:41.284Z,13.40
2022-10-22T23:49:09.466Z,13.40
2022-10-22T23:51:36.447Z,13.40
2022-10-22T23:54:06.275Z,13.40
2022-10-22T23:56:33.329Z,13.40
2022-10-22T23:59:00.182Z,13.40
